createdAt,value
2018-04-07T00:01:00.159Z,47.9
2018-04-07T00:02:01.514Z,48.3
2018-04-07T00:03:02.864Z,48.2
2018-04-07T00:04:04.215Z,48.1
2018-04-07T00:05:05.562Z,48.0
2018-04-07T00:06:06.919Z,48.3
2018-04-07T00:07:08.281Z,48.3
2018-04-07T00:08:09.632Z,48.3
2018-04-07T00:09:10.987Z,48.4
2018-04-07T00:10:12.346Z,48.3
2018-04-07T00:11:13.694Z,48.8
2018-04-07T00:12:15.051Z,49.0
2018-04-07T00:13:16.402Z,49.0
2018-04-07T00:14:17.753Z,49.0
2018-04-07T00:15:19.102Z,49.1
2018-04-07T00:16:20.452Z,49.3
2018-04-07T00:17:21.805Z,49.3
2018-04-07T00:18:23.156Z,49.1
2018-04-07T00:19:24.511Z,49.1
2018-04-07T00:20:25.867Z,49.1
2018-04-07T00:21:27.222Z,48.8
2018-04-07T00:22:28.577Z,48.8
2018-04-07T00:23:29.940Z,49.2
2018-04-07T00:24:31.290Z,49.1
2018-04-07T00:25:32.643Z,49.1
2018-04-07T00:26:34.002Z,49.2
2018-04-07T00:27:35.351Z,49.3
2018-04-07T00:28:36.706Z,49.3
2018-04-07T00:29:38.057Z,49.3
2018-04-07T00:30:39.411Z,49.3
2018-04-07T00:31:40.756Z,49.6
2018-04-07T00:32:42.109Z,49.3
2018-04-07T00:33:43.457Z,49.5
2018-04-07T00:34:44.815Z,49.6
2018-04-07T00:35:46.168Z,49.5
2018-04-07T00:36:47.517Z,49.5
2018-04-07T00:37:48.868Z,49.9
2018-04-07T00:38:50.222Z,50.1
2018-04-07T00:39:51.570Z,50.0
2018-04-07T00:40:52.925Z,49.8
2018-04-07T00:41:54.280Z,50.0
2018-04-07T00:42:55.638Z,49.8
2018-04-07T00:43:56.992Z,49.8
2018-04-07T00:44:58.340Z,50.2
2018-04-07T00:45:59.689Z,49.8
2018-04-07T00:47:01.045Z,50.1
2018-04-07T00:48:02.393Z,50.1
2018-04-07T00:49:03.783Z,50.0
2018-04-07T00:50:05.133Z,50.2
2018-04-07T00:51:06.492Z,50.1
2018-04-07T00:52:07.846Z,49.9
2018-04-07T00:53:09.215Z,49.9
2018-04-07T00:54:10.567Z,50.1
2018-04-07T00:55:11.918Z,50.3
2018-04-07T00:56:13.269Z,50.8
2018-04-07T00:57:14.630Z,50.7
2018-04-07T00:58:15.985Z,50.5
2018-04-07T00:59:17.333Z,50.7
2018-04-07T01:00:18.684Z,50.6
2018-04-07T01:01:20.047Z,50.5
2018-04-07T01:02:21.397Z,50.7
2018-04-07T01:03:22.750Z,50.5
2018-04-07T01:04:24.112Z,50.7
2018-04-07T01:05:25.477Z,51.0
2018-04-07T01:06:26.832Z,50.8
2018-04-07T01:07:28.189Z,50.6
2018-04-07T01:08:29.535Z,50.4
2018-04-07T01:09:30.909Z,50.4
2018-04-07T01:10:32.259Z,50.9
2018-04-07T01:11:33.611Z,50.6
2018-04-07T01:12:34.968Z,50.4
2018-04-07T01:13:36.338Z,50.3
2018-04-07T01:14:37.686Z,50.5
2018-04-07T01:15:39.034Z,50.6
2018-04-07T01:16:40.387Z,50.7
2018-04-07T01:17:41.742Z,50.6
2018-04-07T01:18:43.095Z,50.6
2018-04-07T01:19:44.452Z,50.8
2018-04-07T01:20:45.804Z,50.8
2018-04-07T01:21:47.160Z,50.7
2018-04-07T01:22:48.510Z,50.6
2018-04-07T01:23:49.855Z,51.6
2018-04-07T01:24:51.210Z,51.4
2018-04-07T01:25:52.557Z,51.4
2018-04-07T01:26:54.837Z,51.3
2018-04-07T01:27:56.191Z,51.2
2018-04-07T01:28:57.541Z,51.1
2018-04-07T01:29:58.895Z,51.3
2018-04-07T01:31:00.251Z,51.0
2018-04-07T01:32:01.605Z,51.1
2018-04-07T01:33:02.949Z,51.1
2018-04-07T01:34:04.305Z,51.3
2018-04-07T01:35:05.659Z,51.2
2018-04-07T01:36:07.010Z,51.3
2018-04-07T01:37:08.369Z,51.6
2018-04-07T01:38:09.727Z,51.9
2018-04-07T01:39:11.083Z,51.7
2018-04-07T01:40:12.426Z,51.7
2018-04-07T01:41:13.783Z,51.7
2018-04-07T01:42:15.139Z,51.4
2018-04-07T01:43:16.493Z,51.5
2018-04-07T01:44:17.856Z,52.1
2018-04-07T01:45:19.203Z,51.9
2018-04-07T01:46:20.552Z,51.8
2018-04-07T01:47:21.912Z,51.8
2018-04-07T01:48:23.264Z,52.1
2018-04-07T01:49:24.621Z,52.1
2018-04-07T01:50:25.977Z,52.2
2018-04-07T01:51:27.330Z,51.9
2018-04-07T01:52:28.681Z,52.2
2018-04-07T01:53:30.030Z,52.6
2018-04-07T01:54:31.395Z,52.3
2018-04-07T01:55:32.749Z,52.5
2018-04-07T01:56:34.098Z,52.2
2018-04-07T01:57:35.453Z,52.2
2018-04-07T01:58:36.803Z,52.6
2018-04-07T01:59:38.153Z,52.7
2018-04-07T02:00:39.501Z,52.3
2018-04-07T02:01:40.853Z,52.8
2018-04-07T02:02:42.212Z,53.1
2018-04-07T02:03:43.563Z,52.7
2018-04-07T02:04:44.911Z,52.9
2018-04-07T02:05:46.257Z,52.8
2018-04-07T02:06:47.602Z,52.7
2018-04-07T02:07:48.960Z,52.6
2018-04-07T02:08:50.308Z,52.8
2018-04-07T02:09:51.662Z,52.8
2018-04-07T02:10:53.016Z,52.6
2018-04-07T02:11:54.382Z,52.9
2018-04-07T02:12:55.768Z,52.7
2018-04-07T02:13:57.092Z,52.8
2018-04-07T02:14:58.441Z,52.9
2018-04-07T02:15:59.794Z,52.7
2018-04-07T02:17:01.146Z,52.7
2018-04-07T02:18:02.501Z,52.8
2018-04-07T02:19:03.851Z,52.8
2018-04-07T02:20:05.205Z,52.8
2018-04-07T02:21:06.557Z,52.8
2018-04-07T02:22:07.914Z,52.7
2018-04-07T02:23:09.263Z,52.7
2018-04-07T02:24:10.623Z,52.8
2018-04-07T02:25:11.976Z,52.7
2018-04-07T02:26:13.332Z,52.8
2018-04-07T02:27:14.680Z,52.9
2018-04-07T02:28:16.023Z,52.8
2018-04-07T02:29:17.379Z,52.8
2018-04-07T02:30:18.726Z,52.7
2018-04-07T02:31:20.080Z,52.8
2018-04-07T02:32:21.434Z,52.7
2018-04-07T02:33:22.787Z,52.9
2018-04-07T02:34:24.142Z,52.8
2018-04-07T02:35:25.498Z,52.8
2018-04-07T02:36:26.845Z,52.7
2018-04-07T02:37:28.200Z,52.7
2018-04-07T02:38:29.548Z,52.8
2018-04-07T02:39:30.910Z,52.8
2018-04-07T02:40:32.253Z,52.8
2018-04-07T02:41:33.611Z,52.6
2018-04-07T02:42:34.962Z,52.8
2018-04-07T02:43:36.320Z,52.8
2018-04-07T02:44:37.672Z,52.7
2018-04-07T02:45:39.017Z,52.8
2018-04-07T02:46:40.379Z,52.7
2018-04-07T02:47:41.723Z,52.8
2018-04-07T02:48:43.071Z,52.7
2018-04-07T02:49:44.427Z,52.9
2018-04-07T02:50:45.774Z,52.8
2018-04-07T02:51:47.130Z,53.2
2018-04-07T02:52:48.482Z,52.7
2018-04-07T02:53:49.840Z,52.8
2018-04-07T02:54:51.194Z,52.9
2018-04-07T02:55:52.548Z,52.8
2018-04-07T02:56:53.906Z,52.7
2018-04-07T02:57:55.251Z,52.8
2018-04-07T02:58:56.604Z,52.6
2018-04-07T02:59:57.966Z,53.2
2018-04-07T03:00:59.311Z,53.3
2018-04-07T03:02:00.666Z,53.5
2018-04-07T03:03:02.017Z,53.4
2018-04-07T03:04:03.367Z,53.1
2018-04-07T03:05:04.725Z,53.3
2018-04-07T03:06:06.086Z,53.2
2018-04-07T03:07:07.447Z,53.4
2018-04-07T03:08:08.789Z,53.1
2018-04-07T03:09:10.132Z,53.2
2018-04-07T03:10:11.490Z,53.4
2018-04-07T03:11:12.835Z,53.1
2018-04-07T03:12:14.194Z,53.1
2018-04-07T03:13:15.590Z,53.0
2018-04-07T03:14:16.943Z,53.3
2018-04-07T03:15:18.292Z,53.4
2018-04-07T03:16:19.640Z,53.4
2018-04-07T03:17:20.984Z,53.2
2018-04-07T03:18:22.335Z,53.3
2018-04-07T03:19:23.699Z,53.2
2018-04-07T03:20:25.052Z,53.3
2018-04-07T03:21:26.402Z,53.5
2018-04-07T03:22:27.766Z,53.3
2018-04-07T03:23:29.115Z,53.4
2018-04-07T03:24:30.464Z,53.2
2018-04-07T03:25:31.819Z,53.5
2018-04-07T03:26:33.168Z,53.9
2018-04-07T03:27:34.521Z,54.0
2018-04-07T03:28:35.874Z,54.1
2018-04-07T03:29:37.231Z,54.0
2018-04-07T03:30:38.577Z,53.9
2018-04-07T03:31:39.929Z,54.2
2018-04-07T03:32:41.277Z,54.1
2018-04-07T03:33:42.634Z,53.9
2018-04-07T03:34:43.985Z,54.1
2018-04-07T03:35:45.331Z,54.3
2018-04-07T03:36:46.684Z,54.5
2018-04-07T03:37:48.037Z,54.4
2018-04-07T03:38:49.385Z,54.2
2018-04-07T03:39:50.737Z,54.4
2018-04-07T03:40:52.089Z,54.4
2018-04-07T03:41:53.441Z,54.5
2018-04-07T03:42:54.795Z,54.2
2018-04-07T03:43:56.175Z,54.4
2018-04-07T03:44:57.541Z,54.3
2018-04-07T03:45:58.885Z,54.1
2018-04-07T03:47:00.242Z,54.1
2018-04-07T03:48:01.593Z,54.4
2018-04-07T03:49:02.943Z,54.4
2018-04-07T03:50:04.287Z,54.2
2018-04-07T03:51:05.640Z,54.3
2018-04-07T03:52:06.995Z,54.2
2018-04-07T03:53:08.341Z,54.2
2018-04-07T03:54:09.696Z,54.2
2018-04-07T03:55:11.045Z,54.2
2018-04-07T03:56:12.396Z,54.4
2018-04-07T03:57:13.751Z,54.7
2018-04-07T03:58:15.105Z,54.3
2018-04-07T03:59:16.452Z,54.5
2018-04-07T04:00:17.802Z,54.6
2018-04-07T04:01:19.156Z,54.2
2018-04-07T04:02:20.503Z,54.6
2018-04-07T04:03:21.853Z,54.7
2018-04-07T04:04:23.209Z,54.9
2018-04-07T04:05:24.559Z,54.8
2018-04-07T04:06:25.910Z,54.6
2018-04-07T04:07:27.267Z,54.5
2018-04-07T04:08:28.619Z,54.7
2018-04-07T04:09:29.976Z,54.7
2018-04-07T04:10:31.322Z,54.8
2018-04-07T04:11:32.674Z,54.9
2018-04-07T04:12:34.022Z,54.9
2018-04-07T04:13:35.377Z,55.2
2018-04-07T04:14:36.722Z,55.1
2018-04-07T04:15:38.070Z,55.0
2018-04-07T04:16:39.422Z,55.1
2018-04-07T04:17:40.770Z,54.9
2018-04-07T04:18:42.121Z,54.7
2018-04-07T04:19:43.481Z,55.1
2018-04-07T04:20:44.824Z,55.0
2018-04-07T04:21:46.169Z,54.8
2018-04-07T04:22:47.511Z,55.4
2018-04-07T04:23:48.871Z,54.7
2018-04-07T04:24:50.220Z,54.9
2018-04-07T04:25:51.569Z,55.1
2018-04-07T04:26:52.925Z,55.3
2018-04-07T04:27:54.273Z,55.1
2018-04-07T04:28:55.631Z,54.9
2018-04-07T04:29:56.975Z,55.2
2018-04-07T04:30:58.328Z,55.3
2018-04-07T04:31:59.682Z,55.4
2018-04-07T04:33:01.040Z,55.3
2018-04-07T04:34:02.391Z,55.3
2018-04-07T04:35:03.737Z,55.8
2018-04-07T04:36:05.082Z,55.9
2018-04-07T04:37:06.439Z,55.7
2018-04-07T04:38:07.785Z,55.5
2018-04-07T04:39:09.140Z,56.0
2018-04-07T04:40:10.488Z,55.7
2018-04-07T04:41:11.843Z,55.7
2018-04-07T04:42:13.195Z,55.5
2018-04-07T04:43:14.550Z,55.7
2018-04-07T04:44:15.910Z,55.7
2018-04-07T04:45:17.260Z,55.8
2018-04-07T04:46:18.621Z,56.2
2018-04-07T04:47:19.974Z,56.0
2018-04-07T04:48:21.326Z,56.4
2018-04-07T04:49:22.678Z,56.4
2018-04-07T04:50:24.541Z,56.5
2018-04-07T04:51:25.905Z,56.5
2018-04-07T04:52:27.265Z,56.4
2018-04-07T04:53:28.616Z,56.4
2018-04-07T04:54:29.968Z,56.3
2018-04-07T04:55:31.322Z,56.4
2018-04-07T04:56:32.684Z,56.3
2018-04-07T04:57:34.035Z,56.3
2018-04-07T04:58:35.391Z,56.2
2018-04-07T04:59:36.739Z,56.2
2018-04-07T05:00:38.091Z,56.4
2018-04-07T05:01:39.454Z,56.2
2018-04-07T05:02:40.811Z,56.5
2018-04-07T05:03:42.178Z,56.7
2018-04-07T05:04:43.538Z,56.4
2018-04-07T05:05:44.898Z,56.4
2018-04-07T05:06:46.244Z,56.5
2018-04-07T05:07:47.603Z,56.5
2018-04-07T05:08:48.964Z,56.4
2018-04-07T05:09:50.323Z,56.0
2018-04-07T05:10:51.673Z,56.3
2018-04-07T05:11:53.030Z,56.1
2018-04-07T05:12:54.402Z,56.3
2018-04-07T05:13:55.753Z,56.3
2018-04-07T05:14:57.423Z,56.3
2018-04-07T05:15:58.785Z,56.4
2018-04-07T05:17:00.137Z,56.2
2018-04-07T05:18:01.493Z,56.3
2018-04-07T05:19:02.852Z,56.4
2018-04-07T05:20:04.213Z,56.5
2018-04-07T05:21:05.567Z,56.3
2018-04-07T05:22:06.924Z,56.1
2018-04-07T05:23:08.284Z,56.3
2018-04-07T05:24:09.644Z,56.5
2018-04-07T05:25:10.989Z,56.5
2018-04-07T05:26:12.344Z,56.9
2018-04-07T05:27:13.700Z,56.8
2018-04-07T05:28:15.059Z,56.4
2018-04-07T05:29:16.422Z,57.0
2018-04-07T05:30:17.775Z,56.9
2018-04-07T05:31:19.135Z,56.9
2018-04-07T05:32:20.481Z,56.8
2018-04-07T05:33:21.843Z,56.6
2018-04-07T05:34:23.205Z,56.5
2018-04-07T05:35:24.557Z,56.9
2018-04-07T05:36:25.976Z,56.9
2018-04-07T05:37:27.334Z,56.9
2018-04-07T05:38:28.695Z,56.9
2018-04-07T05:39:30.056Z,56.6
2018-04-07T05:40:31.399Z,56.6
2018-04-07T05:41:32.752Z,56.7
2018-04-07T05:42:34.106Z,56.7
2018-04-07T05:43:35.470Z,56.9
2018-04-07T05:44:36.822Z,57.0
2018-04-07T05:45:38.179Z,56.9
2018-04-07T05:46:39.542Z,57.0
2018-04-07T05:47:40.899Z,56.9
2018-04-07T05:48:42.254Z,56.6
2018-04-07T05:49:43.610Z,56.6
2018-04-07T05:50:44.980Z,56.9
2018-04-07T05:51:46.333Z,57.3
2018-04-07T05:52:47.697Z,57.2
2018-04-07T05:53:49.051Z,57.1
2018-04-07T05:54:50.408Z,57.0
2018-04-07T05:55:51.768Z,57.3
2018-04-07T05:56:53.125Z,57.3
2018-04-07T05:57:54.482Z,56.6
2018-04-07T05:58:55.840Z,56.5
2018-04-07T05:59:57.213Z,56.8
2018-04-07T06:00:58.569Z,56.8
2018-04-07T06:01:59.921Z,56.7
2018-04-07T06:03:01.277Z,56.8
2018-04-07T06:04:02.635Z,56.4
2018-04-07T06:05:04.003Z,56.4
2018-04-07T06:06:05.356Z,56.4
2018-04-07T06:07:06.711Z,56.3
2018-04-07T06:08:08.069Z,56.4
2018-04-07T06:09:09.426Z,56.2
2018-04-07T06:10:10.779Z,56.2
2018-04-07T06:11:12.137Z,56.3
2018-04-07T06:12:13.501Z,56.3
2018-04-07T06:13:14.855Z,56.2
2018-04-07T06:14:16.246Z,56.3
2018-04-07T06:15:17.567Z,56.2
2018-04-07T06:16:18.930Z,56.3
2018-04-07T06:17:20.284Z,56.3
2018-04-07T06:18:21.635Z,56.5
2018-04-07T06:19:23.004Z,56.3
2018-04-07T06:20:24.352Z,56.1
2018-04-07T06:21:25.717Z,56.3
2018-04-07T06:22:27.066Z,56.3
2018-04-07T06:23:28.427Z,56.2
2018-04-07T06:24:29.780Z,56.3
2018-04-07T06:25:31.909Z,56.0
2018-04-07T06:26:33.262Z,56.3
2018-04-07T06:27:34.617Z,56.0
2018-04-07T06:28:35.973Z,56.1
2018-04-07T06:29:37.326Z,56.2
2018-04-07T06:30:38.680Z,56.4
2018-04-07T06:31:40.040Z,56.3
2018-04-07T06:32:41.404Z,56.2
2018-04-07T06:33:42.765Z,56.2
2018-04-07T06:34:44.124Z,56.3
2018-04-07T06:35:45.490Z,56.4
2018-04-07T06:36:46.838Z,56.3
2018-04-07T06:37:48.201Z,56.2
2018-04-07T06:38:49.554Z,56.2
2018-04-07T06:39:50.915Z,56.3
2018-04-07T06:40:52.280Z,56.1
2018-04-07T06:41:53.642Z,55.5
2018-04-07T06:42:55.013Z,56.0
2018-04-07T06:43:56.380Z,54.9
2018-04-07T06:44:57.745Z,54.8
2018-04-07T06:45:59.111Z,55.0
2018-04-07T06:47:00.473Z,54.5
2018-04-07T06:48:01.887Z,54.2
2018-04-07T06:49:03.167Z,54.2
2018-04-07T06:50:04.528Z,54.0
2018-04-07T06:51:05.887Z,53.7
2018-04-07T06:52:07.255Z,53.5
2018-04-07T06:53:08.630Z,53.4
2018-04-07T06:54:09.994Z,52.7
2018-04-07T06:55:11.348Z,52.7
2018-04-07T06:56:12.717Z,52.5
2018-04-07T06:57:14.090Z,52.0
2018-04-07T06:58:15.451Z,52.0
2018-04-07T06:59:16.810Z,51.9
2018-04-07T07:00:18.174Z,51.8
2018-04-07T07:01:19.542Z,51.5
2018-04-07T07:02:20.919Z,51.3
2018-04-07T07:03:22.291Z,51.3
2018-04-07T07:04:23.642Z,50.8
2018-04-07T07:05:25.007Z,50.7
2018-04-07T07:06:26.397Z,50.9
2018-04-07T07:07:27.771Z,50.9
2018-04-07T07:08:29.133Z,50.5
2018-04-07T07:09:30.512Z,50.9
2018-04-07T07:10:31.882Z,50.7
2018-04-07T07:11:33.249Z,50.9
2018-04-07T07:12:34.608Z,50.1
2018-04-07T07:13:35.980Z,50.3
2018-04-07T07:14:37.340Z,49.8
2018-04-07T07:15:38.707Z,49.9
2018-04-07T07:16:40.078Z,49.5
2018-04-07T07:17:41.448Z,49.4
2018-04-07T07:18:42.818Z,49.4
2018-04-07T07:19:44.185Z,48.9
2018-04-07T07:20:45.552Z,49.4
2018-04-07T07:21:46.924Z,48.9
2018-04-07T07:22:48.295Z,48.8
2018-04-07T07:23:49.660Z,49.2
2018-04-07T07:24:51.025Z,49.1
2018-04-07T07:25:52.398Z,49.4
2018-04-07T07:26:53.769Z,49.2
2018-04-07T07:27:55.158Z,49.2
2018-04-07T07:28:56.544Z,48.6
2018-04-07T07:29:57.926Z,48.5
2018-04-07T07:30:59.299Z,48.6
2018-04-07T07:32:00.668Z,48.3
2018-04-07T07:33:02.041Z,48.2
2018-04-07T07:34:03.426Z,48.0
2018-04-07T07:35:04.793Z,48.3
2018-04-07T07:36:06.184Z,48.2
2018-04-07T07:37:07.555Z,48.2
2018-04-07T07:38:08.937Z,48.1
2018-04-07T07:39:10.312Z,48.2
2018-04-07T07:40:11.686Z,48.3
2018-04-07T07:41:13.059Z,47.9
2018-04-07T07:42:14.433Z,48.2
2018-04-07T07:43:15.815Z,47.9
2018-04-07T07:44:17.190Z,48.2
2018-04-07T07:45:18.585Z,48.1
2018-04-07T07:46:19.977Z,47.9
2018-04-07T07:47:21.394Z,47.2
2018-04-07T07:48:22.720Z,47.2
2018-04-07T07:49:24.120Z,47.0
2018-04-07T07:50:25.485Z,46.9
2018-04-07T07:51:26.864Z,46.4
2018-04-07T07:52:28.246Z,46.1
2018-04-07T07:53:29.611Z,46.0
2018-04-07T07:54:30.983Z,45.5
2018-04-07T07:55:32.370Z,45.4
2018-04-07T07:56:33.749Z,45.7
2018-04-07T07:57:35.123Z,45.5
2018-04-07T07:58:36.489Z,45.2
2018-04-07T07:59:37.853Z,44.7
2018-04-07T08:00:39.226Z,45.0
2018-04-07T08:01:40.603Z,44.8
2018-04-07T08:02:41.975Z,44.7
2018-04-07T08:03:43.354Z,44.7
2018-04-07T08:04:44.716Z,44.5
2018-04-07T08:05:46.095Z,44.3
2018-04-07T08:06:47.463Z,44.4
2018-04-07T08:07:48.840Z,44.2
2018-04-07T08:08:50.219Z,44.3
2018-04-07T08:09:51.603Z,43.8
2018-04-07T08:10:52.970Z,43.9
2018-04-07T08:11:54.357Z,43.6
2018-04-07T08:12:55.729Z,43.2
2018-04-07T08:13:57.115Z,42.7
2018-04-07T08:14:58.493Z,42.7
2018-04-07T08:15:59.860Z,42.8
2018-04-07T08:17:01.231Z,42.7
2018-04-07T08:18:02.603Z,42.1
2018-04-07T08:19:03.987Z,42.6
2018-04-07T08:20:05.355Z,42.7
2018-04-07T08:21:06.738Z,42.5
2018-04-07T08:22:08.119Z,42.9
2018-04-07T08:23:09.497Z,42.4
2018-04-07T08:24:10.876Z,42.5
2018-04-07T08:25:12.256Z,42.1
2018-04-07T08:26:13.656Z,42.5
2018-04-07T08:27:15.009Z,42.1
2018-04-07T08:28:16.390Z,42.5
2018-04-07T08:29:17.770Z,42.6
2018-04-07T08:30:19.144Z,42.8
2018-04-07T08:31:20.518Z,42.7
2018-04-07T08:32:21.891Z,42.5
2018-04-07T08:33:23.270Z,42.9
2018-04-07T08:34:24.654Z,42.4
2018-04-07T08:35:26.024Z,43.0
2018-04-07T08:36:27.416Z,42.7
2018-04-07T08:37:28.793Z,42.5
2018-04-07T08:38:30.182Z,42.7
2018-04-07T08:39:31.648Z,42.4
2018-04-07T08:40:32.928Z,42.6
2018-04-07T08:41:34.304Z,42.3
2018-04-07T08:42:35.676Z,42.6
2018-04-07T08:43:37.054Z,42.6
2018-04-07T08:44:38.436Z,42.7
2018-04-07T08:45:39.803Z,42.3
2018-04-07T08:46:41.181Z,42.1
2018-04-07T08:47:42.550Z,41.4
2018-04-07T08:48:43.931Z,41.4
2018-04-07T08:49:45.300Z,41.5
2018-04-07T08:50:46.872Z,41.2
2018-04-07T08:51:48.347Z,41.3
2018-04-07T08:52:49.715Z,41.6
2018-04-07T08:53:51.098Z,41.2
2018-04-07T08:54:52.473Z,40.6
2018-04-07T08:55:53.850Z,40.8
2018-04-07T08:56:55.236Z,41.2
2018-04-07T08:57:56.610Z,41.1
2018-04-07T08:58:57.988Z,40.6
2018-04-07T08:59:59.357Z,40.2
2018-04-07T09:01:00.750Z,40.3
2018-04-07T09:02:02.169Z,40.4
2018-04-07T09:03:03.514Z,40.0
2018-04-07T09:04:04.893Z,40.3
2018-04-07T09:05:06.267Z,40.1
2018-04-07T09:06:07.648Z,39.9
2018-04-07T09:07:09.028Z,40.0
2018-04-07T09:08:10.404Z,40.2
2018-04-07T09:09:11.786Z,40.4
2018-04-07T09:10:13.167Z,41.1
2018-04-07T09:11:14.549Z,40.9
2018-04-07T09:12:15.925Z,41.0
2018-04-07T09:13:17.306Z,40.5
2018-04-07T09:14:18.677Z,40.4
2018-04-07T09:15:20.058Z,40.4
2018-04-07T09:16:21.431Z,40.3
2018-04-07T09:17:22.810Z,40.4
2018-04-07T09:18:24.748Z,40.5
2018-04-07T09:19:26.177Z,40.6
2018-04-07T09:20:27.635Z,40.4
2018-04-07T09:21:28.986Z,40.4
2018-04-07T09:22:30.364Z,40.4
2018-04-07T09:23:31.750Z,40.4
2018-04-07T09:24:33.134Z,40.4
2018-04-07T09:25:34.506Z,40.2
2018-04-07T09:26:35.886Z,40.5
2018-04-07T09:27:37.265Z,39.9
2018-04-07T09:28:38.647Z,39.7
2018-04-07T09:29:40.015Z,39.2
2018-04-07T09:30:41.401Z,39.1
2018-04-07T09:31:42.776Z,39.2
2018-04-07T09:32:44.156Z,38.9
2018-04-07T09:33:45.533Z,39.0
2018-04-07T09:34:46.916Z,39.1
2018-04-07T09:35:48.304Z,38.6
2018-04-07T09:36:49.676Z,38.4
2018-04-07T09:37:51.064Z,38.6
2018-04-07T09:38:52.445Z,38.5
2018-04-07T09:39:53.826Z,38.6
2018-04-07T09:40:55.231Z,38.7
2018-04-07T09:41:56.609Z,38.3
2018-04-07T09:42:58.119Z,38.2
2018-04-07T09:43:59.506Z,38.0
2018-04-07T09:45:00.888Z,38.0
2018-04-07T09:46:02.268Z,38.1
2018-04-07T09:47:03.657Z,38.0
2018-04-07T09:48:05.063Z,37.5
2018-04-07T09:49:06.440Z,37.8
2018-04-07T09:50:07.808Z,37.6
2018-04-07T09:51:09.193Z,37.5
2018-04-07T09:52:10.575Z,37.3
2018-04-07T09:53:11.970Z,37.0
2018-04-07T09:54:13.343Z,37.1
2018-04-07T09:55:14.737Z,37.5
2018-04-07T09:56:16.128Z,37.2
2018-04-07T09:57:17.527Z,37.1
2018-04-07T09:58:18.913Z,37.1
2018-04-07T09:59:20.297Z,37.1
2018-04-07T10:00:21.672Z,37.1
2018-04-07T10:01:23.062Z,37.0
2018-04-07T10:02:24.451Z,37.4
2018-04-07T10:03:25.863Z,37.2
2018-04-07T10:04:27.245Z,37.4
2018-04-07T10:05:28.630Z,37.5
2018-04-07T10:06:30.009Z,37.5
2018-04-07T10:07:31.385Z,37.5
2018-04-07T10:08:32.783Z,37.5
2018-04-07T10:09:34.179Z,37.6
2018-04-07T10:10:35.574Z,37.6
2018-04-07T10:11:36.955Z,38.0
2018-04-07T10:12:38.337Z,37.9
2018-04-07T10:13:39.763Z,37.7
2018-04-07T10:14:41.120Z,37.4
2018-04-07T10:15:42.503Z,37.3
2018-04-07T10:16:43.893Z,37.2
2018-04-07T10:17:45.264Z,37.1
2018-04-07T10:18:46.645Z,36.7
2018-04-07T10:19:48.040Z,36.8
2018-04-07T10:20:49.414Z,36.8
2018-04-07T10:21:50.795Z,36.6
2018-04-07T10:22:52.178Z,36.4
2018-04-07T10:23:53.571Z,36.4
2018-04-07T10:24:54.968Z,36.3
2018-04-07T10:25:56.359Z,36.4
2018-04-07T10:26:57.729Z,36.0
2018-04-07T10:27:59.117Z,35.9
2018-04-07T10:29:00.510Z,35.7
2018-04-07T10:30:01.891Z,35.8
2018-04-07T10:31:03.286Z,35.1
2018-04-07T10:32:04.664Z,35.5
2018-04-07T10:33:06.041Z,35.4
2018-04-07T10:34:07.422Z,35.4
2018-04-07T10:35:08.810Z,35.4
2018-04-07T10:36:10.186Z,35.2
2018-04-07T10:37:11.565Z,35.5
2018-04-07T10:38:12.953Z,35.3
2018-04-07T10:39:14.345Z,35.3
2018-04-07T10:40:15.721Z,35.3
2018-04-07T10:41:17.105Z,35.3
2018-04-07T10:42:18.487Z,35.3
2018-04-07T10:43:19.864Z,35.3
2018-04-07T10:44:21.246Z,35.2
2018-04-07T10:45:22.637Z,35.4
2018-04-07T10:46:24.740Z,34.9
2018-04-07T10:47:26.142Z,35.3
2018-04-07T10:48:27.529Z,35.3
2018-04-07T10:49:28.901Z,35.0
2018-04-07T10:50:30.285Z,34.9
2018-04-07T10:51:31.681Z,34.8
2018-04-07T10:52:33.073Z,34.8
2018-04-07T10:53:34.445Z,34.7
2018-04-07T10:54:35.809Z,34.9
2018-04-07T10:55:37.202Z,35.1
2018-04-07T10:56:38.583Z,34.7
2018-04-07T10:57:39.983Z,34.7
2018-04-07T10:58:41.374Z,34.7
2018-04-07T10:59:42.758Z,34.0
2018-04-07T11:00:44.135Z,34.5
2018-04-07T11:01:46.388Z,34.5
2018-04-07T11:02:47.771Z,34.4
2018-04-07T11:03:49.149Z,34.6
2018-04-07T11:04:50.534Z,34.3
2018-04-07T11:05:51.914Z,34.1
2018-04-07T11:06:53.300Z,33.9
2018-04-07T11:07:54.695Z,34.0
2018-04-07T11:08:56.090Z,34.3
2018-04-07T11:09:57.475Z,33.8
2018-04-07T11:10:58.862Z,33.9
2018-04-07T11:12:00.247Z,34.0
2018-04-07T11:13:01.644Z,34.4
2018-04-07T11:14:03.022Z,33.9
2018-04-07T11:15:04.407Z,34.2
2018-04-07T11:16:05.794Z,34.2
2018-04-07T11:17:07.171Z,33.9
2018-04-07T11:18:08.556Z,33.9
2018-04-07T11:19:09.931Z,33.7
2018-04-07T11:20:11.326Z,33.9
2018-04-07T11:21:12.717Z,33.9
2018-04-07T11:22:14.095Z,33.4
2018-04-07T11:23:15.468Z,33.0
2018-04-07T11:24:16.854Z,33.1
2018-04-07T11:25:18.241Z,32.9
2018-04-07T11:26:19.624Z,32.8
2018-04-07T11:27:21.002Z,32.8
2018-04-07T11:28:22.391Z,32.5
2018-04-07T11:29:23.769Z,32.5
2018-04-07T11:30:25.148Z,32.5
2018-04-07T11:31:26.528Z,32.3
2018-04-07T11:32:27.917Z,32.3
2018-04-07T11:33:29.294Z,32.0
2018-04-07T11:34:30.671Z,31.9
2018-04-07T11:35:32.070Z,32.0
2018-04-07T11:36:33.458Z,31.9
2018-04-07T11:37:34.833Z,31.7
2018-04-07T11:38:36.214Z,31.6
2018-04-07T11:39:37.608Z,31.2
2018-04-07T11:40:38.994Z,31.4
2018-04-07T11:41:40.371Z,31.2
2018-04-07T11:42:41.754Z,31.1
2018-04-07T11:43:43.143Z,30.7
2018-04-07T11:44:44.528Z,30.3
2018-04-07T11:45:45.904Z,30.5
2018-04-07T11:46:47.287Z,30.4
2018-04-07T11:47:48.664Z,30.0
2018-04-07T11:48:50.053Z,30.6
2018-04-07T11:49:51.435Z,30.6
2018-04-07T11:50:52.824Z,29.7
2018-04-07T11:51:54.203Z,29.7
2018-04-07T11:52:55.583Z,29.6
2018-04-07T11:53:56.966Z,29.5
2018-04-07T11:54:58.360Z,29.9
2018-04-07T11:55:59.734Z,29.8
2018-04-07T11:57:01.124Z,29.3
2018-04-07T11:58:02.512Z,29.2
2018-04-07T11:59:03.891Z,29.3
2018-04-07T12:00:05.280Z,29.8
2018-04-07T12:01:06.660Z,29.4
2018-04-07T12:02:08.049Z,29.3
2018-04-07T12:03:09.440Z,29.1
2018-04-07T12:04:10.828Z,29.2
2018-04-07T12:05:12.213Z,29.1
2018-04-07T12:06:13.607Z,29.0
2018-04-07T12:07:14.996Z,28.9
2018-04-07T12:08:16.379Z,28.8
2018-04-07T12:09:17.765Z,28.9
2018-04-07T12:10:19.158Z,29.0
2018-04-07T12:11:20.544Z,28.8
2018-04-07T12:12:21.927Z,28.7
2018-04-07T12:13:23.317Z,27.9
2018-04-07T12:14:24.696Z,28.1
2018-04-07T12:15:26.107Z,27.9
2018-04-07T12:16:27.493Z,28.7
2018-04-07T12:17:28.880Z,28.6
2018-04-07T12:18:30.263Z,28.7
2018-04-07T12:19:31.650Z,28.6
2018-04-07T12:20:33.038Z,28.0
2018-04-07T12:21:34.438Z,28.1
2018-04-07T12:22:35.823Z,28.2
2018-04-07T12:23:38.171Z,28.2
2018-04-07T12:24:40.391Z,27.9
2018-04-07T12:25:42.393Z,27.9
2018-04-07T12:26:44.323Z,28.0
2018-04-07T12:27:46.625Z,27.8
2018-04-07T12:28:48.792Z,27.8
2018-04-07T12:29:50.810Z,27.9
2018-04-07T12:30:53.196Z,27.7
2018-04-07T12:31:55.383Z,27.7
2018-04-07T12:32:57.426Z,27.9
2018-04-07T12:33:58.877Z,27.4
2018-04-07T12:35:00.958Z,27.3
2018-04-07T12:36:02.346Z,27.1
2018-04-07T12:37:03.849Z,27.1
2018-04-07T12:38:05.224Z,26.9
2018-04-07T12:39:06.619Z,26.8
2018-04-07T12:40:07.987Z,26.6
2018-04-07T12:41:09.375Z,26.1
2018-04-07T12:42:10.751Z,26.1
2018-04-07T12:43:12.151Z,25.9
2018-04-07T12:44:13.540Z,25.8
2018-04-07T12:45:14.924Z,26.0
2018-04-07T12:46:16.322Z,26.0
2018-04-07T12:47:17.700Z,25.9
2018-04-07T12:48:19.086Z,25.2
2018-04-07T12:49:20.472Z,25.5
2018-04-07T12:50:21.857Z,25.3
2018-04-07T12:51:23.262Z,24.9
2018-04-07T12:52:24.653Z,24.4
2018-04-07T12:53:26.075Z,24.4
2018-04-07T12:54:27.459Z,24.3
2018-04-07T12:55:28.870Z,24.4
2018-04-07T12:56:30.265Z,24.0
2018-04-07T12:57:31.650Z,24.0
2018-04-07T12:58:33.030Z,23.6
2018-04-07T12:59:34.411Z,24.1
2018-04-07T13:00:35.796Z,23.4
2018-04-07T13:01:37.178Z,23.5
2018-04-07T13:02:38.575Z,23.5
2018-04-07T13:03:39.956Z,23.2
2018-04-07T13:04:41.329Z,23.0
2018-04-07T13:05:42.718Z,22.9
2018-04-07T13:06:44.097Z,23.0
2018-04-07T13:07:45.477Z,22.8
2018-04-07T13:08:46.862Z,22.3
2018-04-07T13:09:48.247Z,22.0
2018-04-07T13:10:49.645Z,21.9
2018-04-07T13:11:51.042Z,22.1
2018-04-07T13:12:52.434Z,21.8
2018-04-07T13:13:54.492Z,21.9
2018-04-07T13:14:55.915Z,21.8
2018-04-07T13:15:57.339Z,21.6
2018-04-07T13:16:58.733Z,21.4
2018-04-07T13:18:00.120Z,21.3
2018-04-07T13:19:01.517Z,21.1
2018-04-07T13:20:02.978Z,20.8
2018-04-07T13:21:04.377Z,21.3
2018-04-07T13:22:05.760Z,21.2
2018-04-07T13:23:07.154Z,20.7
2018-04-07T13:24:08.535Z,20.8
2018-04-07T13:25:09.934Z,21.1
2018-04-07T13:26:11.321Z,20.9
2018-04-07T13:27:12.704Z,21.0
2018-04-07T13:28:14.598Z,20.9
2018-04-07T13:29:15.982Z,20.9
2018-04-07T13:30:17.368Z,20.9
2018-04-07T13:31:18.745Z,20.6
2018-04-07T13:32:20.125Z,20.6
2018-04-07T13:33:21.507Z,20.2
2018-04-07T13:34:22.888Z,20.4
2018-04-07T13:35:24.277Z,20.3
2018-04-07T13:36:25.668Z,20.1
2018-04-07T13:37:28.310Z,20.0